Time;durP1;ratioP1;P1;durP2;ratioP2;P2;SDS_P1;SDS_P2;PMS_P1;PMS_P2;Temp;Humidity;BMP_temperature;BMP_pressure;BME280_temperature;BME280_humidity;BME280_pressure;Samples;Min_cycle;Max_cycle;Signal;HPM_P1;HPM_P2
2022/09/14 00:01:08;;;;;;;6.47;4.28;;;;;;;12.35;76.25;99724.77;1680254;82;21522;-47
2022/09/14 00:03:35;;;;;;;9.50;4.50;;;;;;;12.35;76.22;99728.72;1685006;82;21145;-46
2022/09/14 00:06:07;;;;;;;7.33;4.28;;;;;;;12.36;76.14;99729.57;1723600;81;21057;-46
2022/09/14 00:08:34;;;;;;;10.30;4.00;;;;;;;12.40;76.06;99725.64;1694459;82;21093;-46
2022/09/14 00:11:07;;;;;;;8.20;4.62;;;;;;;12.47;75.95;99728.50;1693910;83;21138;-45
2022/09/14 00:13:35;;;;;;;8.33;4.12;;;;;;;12.47;75.89;99729.83;1687277;82;21039;-46
2022/09/14 00:16:06;;;;;;;7.92;4.12;;;;;;;12.42;75.81;99728.48;1702729;82;21082;-46
2022/09/14 00:18:34;;;;;;;7.83;4.15;;;;;;;12.41;75.84;99727.31;1704082;81;21077;-46
2022/09/14 00:21:03;;;;;;;11.38;4.58;;;;;;;12.45;75.63;99722.88;1705012;82;21027;-46
2022/09/14 00:23:29;;;;;;;8.68;4.60;;;;;;;12.47;75.58;99726.69;1701980;82;21242;-46
2022/09/14 00:26:05;;;;;;;9.40;4.60;;;;;;;12.44;75.73;99716.46;1695236;82;21473;-46
2022/09/14 00:28:37;;;;;;;;;;;;;;;12.40;75.91;99723.82;1705104;82;21066;-46
2022/09/14 00:31:05;;;;;;;6.42;4.20;;;;;;;12.41;76.05;99720.22;1707323;82;20192;-45
2022/09/14 00:33:33;;;;;;;6.60;4.45;;;;;;;12.48;76.01;99722.26;1688963;82;21097;-46
2022/09/14 00:36:07;;;;;;;7.17;4.65;;;;;;;12.50;76.01;99718.97;1708870;82;21241;-47
2022/09/14 00:38:34;;;;;;;8.28;4.30;;;;;;;12.49;75.95;99721.26;1687634;83;21022;-47
2022/09/14 00:41:01;;;;;;;6.47;3.98;;;;;;;12.42;76.08;99715.76;1699469;82;21147;-46
2022/09/14 00:43:28;;;;;;;6.95;3.77;;;;;;;12.42;76.16;99717.92;1693039;82;21096;-47
2022/09/14 00:45:55;;;;;;;7.97;3.80;;;;;;;12.44;76.06;99715.96;1690756;84;21128;-46
2022/09/14 00:48:23;;;;;;;6.03;3.83;;;;;;;12.49;76.17;99718.63;1702246;81;21533;-46
2022/09/14 00:50:50;;;;;;;8.90;4.53;;;;;;;12.49;76.26;99714.66;1692571;82;21126;-46
2022/09/14 00:53:17;;;;;;;8.53;4.17;;;;;;;12.48;76.31;99718.30;1676807;83;21143;-46
2022/09/14 00:55:44;;;;;;;6.10;3.33;;;;;;;12.49;76.31;99716.83;1706507;82;21600;-46
2022/09/14 00:58:10;;;;;;;7.50;3.90;;;;;;;12.52;76.21;99713.05;1710177;82;21078;-46
2022/09/14 01:00:37;;;;;;;8.18;4.22;;;;;;;12.56;76.31;99721.02;1715551;81;22275;-46
2022/09/14 01:03:04;;;;;;;7.28;4.53;;;;;;;12.55;76.32;99713.56;1684760;82;21116;-46
2022/09/14 01:05:39;;;;;;;7.15;4.47;;;;;;;12.54;76.48;99718.99;1670594;84;21647;-47
2022/09/14 01:08:52;;;;;;;7.53;4.05;;;;;;;12.52;76.47;99711.73;1634089;83;21015;-46
2022/09/14 01:11:31;;;;;;;6.53;4.25;;;;;;;12.55;76.39;99708.79;1707624;82;21180;-46
2022/09/14 01:14:16;;;;;;;8.05;4.15;;;;;;;12.55;76.49;99707.47;1678946;81;21464;-46
2022/09/14 01:17:01;;;;;;;7.42;4.30;;;;;;;12.52;76.59;99710.41;1708097;82;21070;-46
2022/09/14 01:19:39;;;;;;;6.40;3.35;;;;;;;12.48;76.75;99706.42;1686254;82;21121;-46
2022/09/14 01:22:20;;;;;;;8.83;4.25;;;;;;;12.47;76.94;99700.30;1710577;81;21069;-47
2022/09/14 01:24:54;;;;;;;8.65;4.78;;;;;;;12.53;76.87;99704.16;1718095;82;21659;-46
2022/09/14 01:27:29;;;;;;;7.40;4.00;;;;;;;12.54;76.88;99697.41;1684013;83;22274;-47
2022/09/14 01:30:07;;;;;;;8.93;4.55;;;;;;;12.52;77.02;99695.89;1694309;83;21036;-47
2022/09/14 01:32:39;;;;;;;7.45;3.83;;;;;;;12.49;77.15;99694.88;1694031;82;21789;-48
2022/09/14 01:35:23;;;;;;;6.67;3.80;;;;;;;12.51;77.20;99698.18;1695067;83;21085;-47
2022/09/14 01:37:55;;;;;;;7.70;4.08;;;;;;;12.54;76.96;99689.50;1717747;81;20962;-47
2022/09/14 01:40:41;;;;;;;6.08;3.67;;;;;;;12.56;76.87;99696.77;1692937;84;21153;-47
2022/09/14 01:43:28;;;;;;;6.78;4.17;;;;;;;12.53;76.92;99694.92;1683667;83;21569;-46
2022/09/14 01:46:02;;;;;;;6.37;3.50;;;;;;;12.48;77.07;99695.38;1688392;83;21035;-47
2022/09/14 01:48:36;;;;;;;5.50;3.27;;;;;;;12.49;77.14;99697.05;1707528;82;21079;-47
2022/09/14 01:51:07;;;;;;;6.85;3.35;;;;;;;12.54;77.04;99691.28;1705540;82;21117;-47
2022/09/14 01:53:44;;;;;;;6.67;3.80;;;;;;;12.58;76.92;99692.16;1710472;82;22116;-48
2022/09/14 01:56:21;;;;;;;8.75;4.10;;;;;;;12.61;77.02;99685.75;1697514;82;22408;-46
2022/09/14 01:59:13;;;;;;;8.55;3.62;;;;;;;12.60;77.04;99690.19;1722459;81;21664;-46
2022/09/14 02:01:46;;;;;;;6.25;3.15;;;;;;;12.56;76.95;99686.20;1716677;81;21055;-45
2022/09/14 02:04:15;;;;;;;8.00;3.25;;;;;;;12.59;76.87;99684.59;1708902;81;21084;-46
2022/09/14 02:06:46;;;;;;;5.53;3.25;;;;;;;12.62;76.83;99679.01;1699437;81;21209;-46
2022/09/14 02:09:17;;;;;;;5.67;3.80;;;;;;;12.63;76.84;99670.59;1689464;82;21095;-46
2022/09/14 02:11:43;;;;;;;5.25;3.20;;;;;;;12.61;76.98;99676.02;1709177;83;21082;-46
2022/09/14 02:14:10;;;;;;;6.42;3.47;;;;;;;12.58;77.00;99670.22;1718365;82;21130;-45
2022/09/14 02:16:36;;;;;;;6.55;3.52;;;;;;;12.58;77.11;99667.58;1714912;81;21093;-46
2022/09/14 02:19:03;;;;;;;5.20;3.30;;;;;;;12.60;76.98;99663.80;1709381;81;21648;-46
2022/09/14 02:21:31;;;;;;;5.70;3.40;;;;;;;12.65;76.90;99660.70;1696207;82;20939;-46
2022/09/14 02:23:58;;;;;;;6.17;3.67;;;;;;;12.64;76.89;99661.20;1685424;82;21240;-45
2022/09/14 02:26:25;;;;;;;5.78;3.55;;;;;;;12.64;77.03;99662.98;1726274;81;21093;-46
2022/09/14 02:28:55;;;;;;;10.03;4.10;;;;;;;12.60;77.11;99662.97;1710446;81;21545;-46
2022/09/14 02:31:39;;;;;;;5.80;3.77;;;;;;;12.60;77.22;99659.02;1693845;82;21736;-46
2022/09/14 02:34:11;;;;;;;5.78;3.37;;;;;;;12.67;77.06;99662.69;1687431;83;21097;-45
2022/09/14 02:37:04;;;;;;;6.60;4.22;;;;;;;12.69;77.06;99651.98;1684054;82;21072;-45
2022/09/14 02:40:11;;;;;;;8.48;3.70;;;;;;;12.67;76.98;99651.31;1643548;82;21066;-46
2022/09/14 02:42:46;;;;;;;6.00;3.75;;;;;;;12.60;77.10;99661.16;1722052;81;21103;-48
2022/09/14 02:45:27;;;;;;;6.97;4.03;;;;;;;12.59;77.12;99662.16;1693739;82;21152;-48
2022/09/14 02:48:29;;;;;;;5.42;3.42;;;;;;;12.59;77.03;99659.98;1685815;84;21594;-48
2022/09/14 02:51:22;;;;;;;7.00;4.20;;;;;;;12.61;77.05;99658.05;1720548;82;21050;-47
2022/09/14 02:54:11;;;;;;;5.85;3.50;;;;;;;12.59;77.19;99659.52;1713357;82;21083;-47
2022/09/14 02:56:38;;;;;;;9.40;3.77;;;;;;;12.57;77.28;99654.04;1655235;84;21101;-47
2022/09/14 02:59:04;;;;;;;6.15;3.50;;;;;;;12.60;77.08;99653.23;1721860;82;21134;-47
2022/09/14 03:01:31;;;;;;;6.58;3.65;;;;;;;12.62;77.01;99646.48;1722664;82;21549;-46
2022/09/14 03:03:57;;;;;;;5.75;3.58;;;;;;;12.62;77.12;99644.70;1694371;82;21101;-46
2022/09/14 03:06:24;;;;;;;7.35;3.98;;;;;;;12.59;77.18;99646.32;1714356;81;21074;-46
2022/09/14 03:08:50;;;;;;;5.92;3.33;;;;;;;12.57;77.21;99650.90;1686979;82;21628;-46
2022/09/14 03:11:19;;;;;;;8.05;3.60;;;;;;;12.60;77.06;99651.09;1707433;82;21133;-47
2022/09/14 03:13:46;;;;;;;5.58;3.30;;;;;;;12.62;76.94;99647.80;1682605;82;21072;-46
2022/09/14 03:16:14;;;;;;;6.20;3.77;;;;;;;12.65;76.88;99646.19;1714256;82;21157;-46
2022/09/14 03:18:41;;;;;;;8.33;3.98;;;;;;;12.63;77.06;99640.23;1717462;81;21184;-46
2022/09/14 03:21:11;;;;;;;7.85;3.92;;;;;;;12.58;77.08;99644.65;1711361;82;21167;-46
2022/09/14 03:23:41;;;;;;;7.03;3.80;;;;;;;12.56;77.12;99647.94;1683834;83;21096;-46
2022/09/14 03:26:17;;;;;;;7.08;4.08;;;;;;;12.60;77.05;99649.78;1711156;81;21159;-47
2022/09/14 03:28:43;;;;;;;5.92;3.85;;;;;;;12.59;77.08;99643.69;1680495;83;21130;-46
2022/09/14 03:31:11;;;;;;;5.83;3.92;;;;;;;12.56;77.17;99638.70;1700769;83;21217;-46
2022/09/14 03:33:39;;;;;;;8.73;4.40;;;;;;;12.52;77.37;99633.38;1702351;82;21101;-46
2022/09/14 03:36:14;;;;;;;8.45;3.58;;;;;;;12.50;77.45;99635.85;1691136;82;21148;-47
2022/09/14 03:38:51;;;;;;;6.03;3.80;;;;;;;12.52;77.32;99629.92;1713214;82;21082;-46
2022/09/14 03:41:19;;;;;;;6.55;3.92;;;;;;;12.52;77.34;99635.20;1691210;82;21075;-47
2022/09/14 03:43:46;;;;;;;5.72;3.65;;;;;;;12.49;77.46;99636.82;1715002;82;21552;-47
2022/09/14 03:46:16;;;;;;;8.18;3.72;;;;;;;12.44;77.53;99635.48;1711708;82;21114;-47
2022/09/14 03:48:43;;;;;;;5.97;3.77;;;;;;;12.48;77.46;99645.23;1713373;81;21110;-47
2022/09/14 03:51:11;;;;;;;6.08;3.42;;;;;;;12.50;77.34;99635.35;1690345;82;21050;-47
2022/09/14 03:53:38;;;;;;;5.97;3.70;;;;;;;12.53;77.21;99646.11;1677843;83;21554;-47
2022/09/14 03:56:15;;;;;;;11.75;4.08;;;;;;;12.50;77.35;99651.19;1707197;81;21132;-46
2022/09/14 03:58:43;;;;;;;7.08;3.92;;;;;;;12.48;77.46;99657.61;1701971;82;21767;-47
2022/09/14 04:01:13;;;;;;;6.15;3.87;;;;;;;12.53;77.33;99657.98;1700486;82;21119;-47
2022/09/14 04:03:40;;;;;;;6.47;3.33;;;;;;;12.58;77.13;99657.03;1707950;82;21049;-47
2022/09/14 04:06:08;;;;;;;7.40;3.52;;;;;;;12.60;76.90;99655.05;1687878;82;21062;-47
2022/09/14 04:08:38;;;;;;;7.72;3.77;;;;;;;12.60;76.90;99655.05;1721446;81;21071;-47
2022/09/14 04:11:16;;;;;;;7.00;3.55;;;;;;;12.58;76.76;99656.53;1722304;81;21113;-47
2022/09/14 04:13:44;;;;;;;6.95;3.55;;;;;;;12.61;76.60;99660.69;1684415;82;21250;-48
2022/09/14 04:16:12;;;;;;;6.08;3.50;;;;;;;12.68;76.26;99658.26;1712480;81;21530;-49
2022/09/14 04:18:39;;;;;;;6.10;3.62;;;;;;;12.69;76.04;99658.08;1702884;82;21133;-48
2022/09/14 04:21:13;;;;;;;6.65;3.67;;;;;;;12.69;75.80;99664.67;1711823;82;21247;-49
2022/09/14 04:23:40;;;;;;;6.17;3.15;;;;;;;12.68;75.66;99670.14;1691357;82;21649;-48
2022/09/14 04:26:16;;;;;;;5.78;2.80;;;;;;;12.71;75.58;99665.37;1703709;82;21762;-48
2022/09/14 04:28:43;;;;;;;5.80;3.10;;;;;;;12.80;75.04;99676.31;1664750;83;21098;-48
2022/09/14 04:31:10;;;;;;;7.12;2.95;;;;;;;12.87;74.66;99687.08;1691889;82;21190;-48
2022/09/14 04:33:39;;;;;;;7.22;3.58;;;;;;;12.90;74.48;99691.23;1706224;82;21054;-48
2022/09/14 04:36:14;;;;;;;4.83;3.02;;;;;;;12.88;73.57;99688.75;1685062;82;21110;-49
2022/09/14 04:38:41;;;;;;;6.85;3.70;;;;;;;12.88;73.67;99687.44;1705297;81;21112;-48
2022/09/14 04:41:12;;;;;;;5.22;2.40;;;;;;;12.93;73.43;99689.11;1700241;82;21069;-47
2022/09/14 04:43:39;;;;;;;5.33;2.60;;;;;;;12.95;73.48;99691.10;1702915;82;21639;-47
2022/09/14 04:46:09;;;;;;;8.20;3.25;;;;;;;12.94;72.95;99689.44;1710320;81;21156;-48
2022/09/14 04:48:36;;;;;;;5.75;3.10;;;;;;;12.92;73.07;99686.63;1715687;82;21392;-47
2022/09/14 04:51:18;;;;;;;5.08;2.52;;;;;;;12.91;73.13;99683.17;1688675;82;21187;-50
2022/09/14 04:53:49;;;;;;;5.08;2.85;;;;;;;12.94;72.58;99693.39;1706042;82;21603;-47
2022/09/14 04:56:16;;;;;;;6.75;2.87;;;;;;;12.95;72.70;99689.78;1707809;82;21068;-47
2022/09/14 04:58:46;;;;;;;7.08;3.22;;;;;;;12.94;72.54;99689.94;1705653;82;21491;-47
2022/09/14 05:01:21;;;;;;;5.90;2.40;;;;;;;12.90;72.77;99686.78;1711798;81;21158;-46
2022/09/14 05:03:47;;;;;;;5.42;2.62;;;;;;;12.87;72.63;99684.44;1713315;82;21783;-47
2022/09/14 05:06:17;;;;;;;6.85;2.87;;;;;;;12.93;72.30;99688.30;1705581;81;21125;-47
2022/09/14 05:08:45;;;;;;;6.95;3.30;;;;;;;12.93;72.40;99688.30;1689722;83;21086;-49
2022/09/14 05:11:16;;;;;;;6.12;3.27;;;;;;;12.89;72.44;99685.11;1713865;82;21504;-47
2022/09/14 05:13:43;;;;;;;5.78;3.15;;;;;;;12.85;72.65;99686.92;1714254;82;21061;-46
2022/09/14 05:16:24;;;;;;;5.35;2.65;;;;;;;12.80;72.82;99688.19;1686115;83;21098;-48
2022/09/14 05:18:50;;;;;;;6.42;3.00;;;;;;;12.82;72.94;99695.46;1697094;82;21740;-46
2022/09/14 05:21:19;;;;;;;5.83;2.83;;;;;;;12.87;73.01;99697.64;1656639;84;21563;-46
2022/09/14 05:23:45;;;;;;;6.70;3.20;;;;;;;12.88;72.90;99694.50;1714066;81;21090;-48
2022/09/14 05:26:12;;;;;;;5.03;2.70;;;;;;;12.83;73.14;99691.84;1709218;80;21126;-46
2022/09/14 05:28:39;;;;;;;5.12;3.10;;;;;;;12.82;73.52;99694.64;1703744;82;21959;-49
2022/09/14 05:31:07;;;;;;;5.12;3.00;;;;;;;12.83;73.61;99708.19;1710111;81;21588;-46
2022/09/14 05:33:34;;;;;;;6.35;3.35;;;;;;;12.87;72.84;99716.12;1689163;83;21616;-46
2022/09/14 05:36:02;;;;;;;6.62;3.20;;;;;;;12.93;72.72;99701.50;1698107;82;21053;-49
2022/09/14 05:38:31;;;;;;;8.23;3.25;;;;;;;12.95;72.51;99710.09;1703191;82;21111;-47
2022/09/14 05:40:57;;;;;;;5.17;2.95;;;;;;;12.99;72.23;99714.06;1678162;82;21125;-47
2022/09/14 05:43:24;;;;;;;5.35;3.30;;;;;;;13.03;72.19;99714.11;1717795;81;21375;-48
2022/09/14 05:45:50;;;;;;;5.33;2.62;;;;;;;13.10;71.28;99712.99;1690306;82;21188;-47
2022/09/14 05:48:19;;;;;;;9.38;3.00;;;;;;;13.17;70.94;99702.95;1705419;82;21071;-47
2022/09/14 05:50:45;;;;;;;6.53;3.10;;;;;;;13.23;70.99;99703.31;1693876;83;21063;-48
2022/09/14 05:53:11;;;;;;;5.10;2.80;;;;;;;13.25;70.83;99697.41;1680776;82;21087;-48
2022/09/14 05:55:38;;;;;;;10.53;3.22;;;;;;;13.24;71.12;99693.91;1681767;83;21035;-48
2022/09/14 05:58:04;;;;;;;6.65;3.27;;;;;;;13.26;71.14;99700.36;1713950;81;21132;-47
2022/09/14 06:00:33;;;;;;;8.45;3.05;;;;;;;13.31;70.88;99704.68;1705179;82;21609;-49
2022/09/14 06:02:59;;;;;;;8.18;3.30;;;;;;;13.37;70.71;99702.77;1702405;82;21642;-47
2022/09/14 06:05:27;;;;;;;5.95;3.60;;;;;;;13.44;70.39;99704.29;1678020;84;21109;-49
2022/09/14 06:07:54;;;;;;;18.57;5.05;;;;;;;13.49;70.28;99698.86;1698724;83;21098;-48
2022/09/14 06:10:21;;;;;;;6.65;3.30;;;;;;;13.53;70.35;99702.00;1683545;83;21137;-47
2022/09/14 06:12:49;;;;;;;6.58;3.27;;;;;;;13.54;70.05;99692.59;1685671;84;21533;-48
2022/09/14 06:15:16;;;;;;;4.55;2.70;;;;;;;13.59;69.56;99701.88;1685227;83;21066;-48
2022/09/14 06:17:43;;;;;;;5.25;3.10;;;;;;;13.66;68.83;99697.61;1684364;83;21296;-48
2022/09/14 06:20:10;;;;;;;5.00;2.90;;;;;;;13.68;68.87;99689.02;1704411;83;21611;-49
2022/09/14 06:22:36;;;;;;;5.12;3.20;;;;;;;13.69;68.92;99679.60;1689580;82;21069;-48
2022/09/14 06:25:04;;;;;;;5.95;2.75;;;;;;;13.73;69.19;99676.99;1718486;81;21082;-48
2022/09/14 06:27:31;;;;;;;6.20;3.00;;;;;;;13.78;68.98;99680.95;1690328;83;21752;-48
2022/09/14 06:29:58;;;;;;;7.87;3.00;;;;;;;13.85;68.70;99689.89;1710344;81;21165;-47
2022/09/14 06:32:26;;;;;;;5.08;2.90;;;;;;;13.95;68.19;99682.64;1652054;84;21612;-48
2022/09/14 06:34:52;;;;;;;5.33;2.58;;;;;;;14.00;67.64;99686.13;1717631;81;21058;-49
2022/09/14 06:37:19;;;;;;;7.28;3.58;;;;;;;13.98;67.82;99685.47;1714164;81;21056;-49
2022/09/14 06:39:45;;;;;;;5.95;3.15;;;;;;;13.96;67.32;99688.78;1707119;82;21075;-47
2022/09/14 06:42:12;;;;;;;6.50;3.27;;;;;;;13.90;67.65;99681.83;1709379;82;21144;-47
2022/09/14 06:44:39;;;;;;;18.98;5.22;;;;;;;13.90;68.06;99684.47;1713402;82;21137;-48
2022/09/14 06:47:06;;;;;;;6.35;3.42;;;;;;;13.94;67.98;99683.14;1688424;82;21532;-47
2022/09/14 06:49:32;;;;;;;9.90;3.92;;;;;;;14.06;67.89;99676.23;1693718;83;21477;-49
2022/09/14 06:51:59;;;;;;;14.83;3.85;;;;;;;14.17;67.72;99673.76;1696268;82;21121;-49
2022/09/14 06:54:26;;;;;;;5.28;3.10;;;;;;;14.24;67.66;99682.21;1689967;82;21334;-48
2022/09/14 06:56:53;;;;;;;7.45;3.20;;;;;;;14.25;66.77;99681.70;1679307;82;21132;-49
2022/09/14 06:59:20;;;;;;;6.20;3.52;;;;;;;14.21;66.56;99670.63;1701230;82;21664;-48
2022/09/14 07:01:51;;;;;;;10.00;4.67;;;;;;;14.19;66.91;99671.77;1679053;84;21137;-47
2022/09/14 07:04:15;;;;;;;8.15;3.22;;;;;;;14.18;66.95;99670.95;1688238;83;21129;-49
2022/09/14 07:06:46;;;;;;;13.62;4.12;;;;;;;14.28;66.97;99667.65;1692343;83;21232;-47
2022/09/14 07:09:13;;;;;;;6.20;3.65;;;;;;;14.37;66.95;99665.83;1682140;83;21472;-46
2022/09/14 07:11:40;;;;;;;5.37;3.77;;;;;;;14.43;67.17;99668.33;1714222;81;21076;-48
2022/09/14 07:14:06;;;;;;;8.53;3.80;;;;;;;14.47;67.18;99663.02;1736238;81;21006;-47
2022/09/14 07:16:34;;;;;;;14.93;5.22;;;;;;;14.49;66.61;99665.84;1708835;82;21559;-46
2022/09/14 07:19:04;;;;;;;10.78;4.12;;;;;;;14.49;66.76;99660.55;1696632;82;21102;-47
2022/09/14 07:21:31;;;;;;;5.62;3.35;;;;;;;14.50;66.98;99659.55;1701805;82;22360;-47
2022/09/14 07:23:59;;;;;;;6.75;3.25;;;;;;;14.57;66.75;99665.51;1703600;81;21050;-48
2022/09/14 07:26:32;;;;;;;10.70;3.65;;;;;;;14.68;65.72;99661.23;1703425;82;21155;-47
2022/09/14 07:29:02;;;;;;;10.55;3.98;;;;;;;14.80;66.06;99664.37;1704865;82;21086;-47
2022/09/14 07:31:33;;;;;;;7.33;3.15;;;;;;;14.93;65.77;99667.33;1691786;82;21257;-47
2022/09/14 07:34:02;;;;;;;19.42;6.35;;;;;;;14.99;64.04;99655.22;1706470;83;21113;-46
2022/09/14 07:36:30;;;;;;;9.63;3.30;;;;;;;15.00;64.44;99653.72;1701297;83;21066;-47
2022/09/14 07:38:56;;;;;;;8.85;3.05;;;;;;;15.02;64.34;99645.10;1683794;83;21101;-47
2022/09/14 07:41:26;;;;;;;6.40;3.17;;;;;;;15.05;64.40;99646.60;1698827;83;21027;-46
2022/09/14 07:43:59;;;;;;;7.72;2.75;;;;;;;15.10;64.04;99638.15;1682048;83;21132;-46
2022/09/14 07:46:32;;;;;;;8.38;3.02;;;;;;;15.19;63.16;99653.02;1685487;83;21207;-46
2022/09/14 07:49:01;;;;;;;8.38;2.87;;;;;;;15.29;62.92;99639.56;1675389;84;21069;-47
2022/09/14 07:51:29;;;;;;;7.83;2.80;;;;;;;15.41;63.04;99638.18;1675121;83;21225;-47
2022/09/14 07:53:55;;;;;;;7.53;2.37;;;;;;;15.49;61.01;99638.14;1705360;83;21597;-47
2022/09/14 07:56:24;;;;;;;4.85;2.40;;;;;;;15.49;60.55;99640.80;1688524;82;21142;-49
2022/09/14 07:58:58;;;;;;;6.08;2.80;;;;;;;15.48;60.07;99635.66;1686044;82;21070;-47
2022/09/14 08:01:25;;;;;;;12.88;3.65;;;;;;;15.47;60.98;99638.83;1712387;82;21077;-47
2022/09/14 08:03:52;;;;;;;4.83;2.25;;;;;;;15.50;60.81;99629.68;1721779;81;21434;-47
2022/09/14 08:06:23;;;;;;;4.80;2.58;;;;;;;15.54;59.12;99624.38;1682348;82;21093;-48
2022/09/14 08:08:51;;;;;;;11.68;3.62;;;;;;;15.58;59.46;99633.14;1695820;82;22371;-47
2022/09/14 08:11:26;;;;;;;4.85;2.02;;;;;;;15.62;59.91;99632.30;1709817;81;21666;-47
2022/09/14 08:14:02;;;;;;;4.83;2.00;;;;;;;15.68;59.12;99619.64;1713970;81;21113;-49
2022/09/14 08:16:29;;;;;;;4.65;2.10;;;;;;;15.81;58.74;99621.77;1710977;81;21109;-48
2022/09/14 08:19:02;;;;;;;9.85;2.00;;;;;;;15.92;57.51;99623.17;1722718;81;21105;-49
2022/09/14 08:21:30;;;;;;;3.80;1.85;;;;;;;16.02;58.26;99618.48;1707669;81;21205;-49
2022/09/14 08:23:57;;;;;;;4.78;1.92;;;;;;;16.21;58.48;99626.97;1720042;81;21059;-48
2022/09/14 08:26:26;;;;;;;5.20;2.25;;;;;;;16.41;55.66;99615.33;1708918;82;21603;-47
2022/09/14 08:28:53;;;;;;;4.55;2.12;;;;;;;16.54;55.51;99608.91;1709337;82;21560;-47
2022/09/14 08:31:23;;;;;;;13.15;2.47;;;;;;;16.61;55.68;99609.85;1686008;82;21031;-48
2022/09/14 08:33:56;;;;;;;4.60;1.72;;;;;;;16.71;55.56;99612.25;1712041;82;21541;-47
2022/09/14 08:36:23;;;;;;;3.90;1.62;;;;;;;16.77;53.24;99610.17;1702401;81;21147;-49
2022/09/14 08:38:50;;;;;;;4.03;1.62;;;;;;;16.77;53.61;99606.19;1714945;82;21133;-49
2022/09/14 08:41:46;;;;;;;3.25;1.52;;;;;;;16.81;53.51;99596.02;1718915;81;21509;-47
2022/09/14 08:44:36;;;;;;;4.03;1.70;;;;;;;16.86;53.42;99605.63;1669692;82;21645;-48
2022/09/14 08:47:18;;;;;;;6.35;2.52;;;;;;;16.95;53.33;99594.43;1705846;81;21324;-46
2022/09/14 08:49:54;;;;;;;10.05;2.30;;;;;;;17.07;52.67;99595.09;1697544;82;21056;-47
2022/09/14 08:52:43;;;;;;;7.00;1.80;;;;;;;17.17;52.06;99594.81;1705932;82;21345;-46
2022/09/14 08:55:30;;;;;;;4.80;2.00;;;;;;;17.22;51.16;99592.42;1692017;82;21537;-47
2022/09/14 08:58:01;;;;;;;4.78;1.50;;;;;;;17.22;51.35;99600.91;1673575;84;21093;-46
2022/09/14 09:00:42;;;;;;;4.40;2.00;;;;;;;17.16;51.59;99594.48;1688864;83;21317;-46
2022/09/14 09:03:40;;;;;;;3.67;1.70;;;;;;;17.11;51.59;99601.38;1706322;81;21549;-47
2022/09/14 09:06:50;;;;;;;3.58;1.22;;;;;;;17.01;51.61;99593.67;1712690;82;21066;-47
2022/09/14 09:09:40;;;;;;;4.03;1.67;;;;;;;16.93;51.50;99587.12;1690219;83;21674;-47
2022/09/14 09:12:13;;;;;;;3.77;1.92;;;;;;;16.88;50.65;99588.52;1699123;82;21159;-46
2022/09/14 09:14:56;;;;;;;4.22;1.75;;;;;;;16.85;51.18;99595.52;1689208;83;21302;-46
2022/09/14 09:17:30;;;;;;;3.42;1.47;;;;;;;16.80;51.76;99587.23;1691896;82;21037;-46
2022/09/14 09:20:17;;;;;;;4.08;1.72;;;;;;;16.76;52.36;99580.66;1705676;82;21046;-46
2022/09/14 09:23:13;;;;;;;3.33;1.37;;;;;;;16.74;52.59;99577.33;1674613;84;23040;-46
2022/09/14 09:26:12;;;;;;;6.75;1.82;;;;;;;16.75;52.73;99571.53;1708878;82;21002;-47
2022/09/14 09:28:46;;;;;;;9.03;2.00;;;;;;;16.70;53.74;99573.41;1684928;83;21362;-47
2022/09/14 09:31:13;;;;;;;5.97;1.85;;;;;;;16.69;54.57;99578.38;1693529;82;21544;-47
2022/09/14 09:33:47;;;;;;;5.83;2.00;;;;;;;16.67;54.34;99582.55;1708824;81;21032;-46
2022/09/14 09:36:15;;;;;;;5.95;1.62;;;;;;;16.63;54.70;99584.44;1699398;82;21075;-46
2022/09/14 09:38:42;;;;;;;7.33;2.15;;;;;;;16.56;55.03;99587.48;1685431;83;21036;-46
2022/09/14 09:41:19;;;;;;;6.15;2.22;;;;;;;16.52;55.43;99593.66;1703394;82;21730;-47
2022/09/14 09:44:05;;;;;;;8.08;2.45;;;;;;;16.47;55.63;99590.21;1708965;81;21375;-46
2022/09/14 09:46:34;;;;;;;3.85;1.80;;;;;;;16.42;55.77;99589.93;1717215;82;21070;-46
2022/09/14 09:49:23;;;;;;;4.37;2.00;;;;;;;16.39;56.06;99589.47;1699478;83;21058;-46
2022/09/14 09:51:50;;;;;;;4.80;1.90;;;;;;;16.35;56.16;99585.03;1690460;83;21158;-47
2022/09/14 09:54:28;;;;;;;5.40;2.50;;;;;;;16.31;56.59;99583.75;1685263;82;21115;-47
2022/09/14 09:57:02;;;;;;;4.47;2.17;;;;;;;16.28;56.76;99588.08;1680844;84;21125;-46
2022/09/14 09:59:39;;;;;;;4.33;2.52;;;;;;;16.25;57.03;99585.27;1685854;82;21081;-46
2022/09/14 10:02:23;;;;;;;5.97;2.45;;;;;;;16.23;57.35;99589.13;1683112;84;21078;-46
2022/09/14 10:05:09;;;;;;;5.12;2.62;;;;;;;16.19;57.54;99583.36;1681074;82;21089;-47
2022/09/14 10:07:57;;;;;;;7.65;2.90;;;;;;;16.18;57.60;99585.67;1680396;82;21222;-47
2022/09/14 10:10:32;;;;;;;8.93;3.05;;;;;;;16.16;58.01;99586.36;1678865;84;21078;-46
2022/09/14 10:12:58;;;;;;;4.78;2.72;;;;;;;16.15;57.49;99581.56;1677253;84;21063;-48
2022/09/14 10:15:35;;;;;;;5.97;2.15;;;;;;;16.16;57.75;99575.23;1676115;84;21246;-48
2022/09/14 10:18:15;;;;;;;7.90;3.08;;;;;;;16.16;57.60;99573.91;1689502;82;21151;-46
2022/09/14 10:20:59;;;;;;;5.53;2.92;;;;;;;16.19;57.82;99574.55;1681112;84;21153;-46
2022/09/14 10:23:27;;;;;;;5.28;3.10;;;;;;;16.22;57.74;99578.17;1705274;82;21129;-46
2022/09/14 10:26:15;;;;;;;5.08;3.00;;;;;;;16.25;58.06;99581.80;1687400;82;21431;-46
2022/09/14 10:28:45;;;;;;;4.78;2.50;;;;;;;16.28;58.24;99578.28;1695061;84;21716;-47
2022/09/14 10:31:23;;;;;;;6.20;2.52;;;;;;;16.34;58.12;99574.92;1683725;83;21122;-46
2022/09/14 10:33:55;;;;;;;7.83;2.92;;;;;;;16.38;58.34;99580.69;1704633;82;22104;-46
2022/09/14 10:36:34;;;;;;;5.35;2.72;;;;;;;16.42;58.39;99581.96;1708563;82;21291;-47
2022/09/14 10:39:25;;;;;;;4.87;2.70;;;;;;;16.49;58.50;99582.91;1677635;83;21110;-46
2022/09/14 10:42:00;;;;;;;8.03;2.75;;;;;;;16.63;58.20;99576.48;1682795;82;21097;-46
2022/09/14 10:44:55;;;;;;;10.37;4.03;;;;;;;16.74;58.27;99572.53;1684743;82;21608;-46
2022/09/14 10:47:51;;;;;;;9.03;3.10;;;;;;;16.80;58.45;99573.95;1706159;82;21619;-46
2022/09/14 10:50:40;;;;;;;9.25;3.55;;;;;;;16.87;58.38;99572.23;1711814;82;21050;-46
2022/09/14 10:53:33;;;;;;;10.70;4.08;;;;;;;16.93;58.04;99569.36;1709476;82;21171;-47
2022/09/14 10:58:43;;;;;;;6.95;3.10;;;;;;;17.11;57.94;99572.95;1785784;78;22407;-47
2022/09/14 11:01:40;;;;;;;8.68;3.90;;;;;;;17.16;57.75;99577.20;1733496;80;21070;-47
2022/09/14 11:04:30;;;;;;;5.80;3.90;;;;;;;17.14;57.53;99585.88;1747800;80;21193;-46
2022/09/14 11:07:30;;;;;;;9.40;4.20;;;;;;;17.07;57.36;99579.14;1744456;80;21105;-47
2022/09/14 11:10:19;;;;;;;7.58;4.33;;;;;;;17.01;57.89;99570.60;1738080;80;20982;-47
2022/09/14 11:13:06;;;;;;;5.95;4.33;;;;;;;16.98;58.13;99563.47;1686534;80;21074;-47
2022/09/14 11:16:00;;;;;;;8.43;4.55;;;;;;;16.95;58.60;99558.04;1691004;84;21029;-47
2022/09/14 11:18:54;;;;;;;8.10;4.22;;;;;;;16.99;58.68;99551.84;1708340;81;21097;-46
2022/09/14 11:21:41;;;;;;;8.65;4.58;;;;;;;17.03;59.33;99545.14;1685097;81;21168;-47
2022/09/14 11:24:42;;;;;;;7.35;4.00;;;;;;;17.16;60.11;99553.28;1709792;82;21058;-47
2022/09/14 11:27:41;;;;;;;6.72;3.90;;;;;;;17.34;60.92;99554.22;1712908;81;21112;-46
2022/09/14 11:30:15;;;;;;;6.60;4.17;;;;;;;17.46;60.18;99543.40;1715660;82;20947;-46
2022/09/14 11:32:50;;;;;;;6.37;4.22;;;;;;;17.50;60.26;99537.22;1716183;82;21069;-46
2022/09/14 11:35:45;;;;;;;6.85;4.72;;;;;;;17.52;60.51;99539.18;1715974;82;21140;-47
2022/09/14 11:38:27;;;;;;;7.83;4.03;;;;;;;17.48;60.37;99544.55;1710045;81;21057;-47
2022/09/14 11:41:17;;;;;;;7.28;4.80;;;;;;;17.37;61.17;99543.72;1713691;81;21122;-49
2022/09/14 11:44:08;;;;;;;9.18;5.30;;;;;;;17.27;61.85;99544.83;1719465;81;21548;-48
2022/09/14 11:46:40;;;;;;;8.38;5.05;;;;;;;17.18;62.74;99543.80;1717271;82;23248;-48
2022/09/14 11:49:54;;;;;;;8.15;4.83;;;;;;;17.11;63.69;99537.06;1715839;83;21072;-47
2022/09/14 11:52:29;;;;;;;6.97;4.90;;;;;;;17.08;64.33;99539.61;1712459;82;21097;-46
2022/09/14 11:54:55;;;;;;;8.08;5.62;;;;;;;17.04;65.16;99535.66;1715547;83;21031;-47
2022/09/14 11:57:25;;;;;;;13.10;7.05;;;;;;;16.99;65.80;99535.91;1704672;82;21082;-47
2022/09/14 12:00:05;;;;;;;9.18;6.03;;;;;;;16.94;66.36;99540.44;1708834;83;21290;-47
2022/09/14 12:02:41;;;;;;;7.42;5.55;;;;;;;16.93;67.28;99543.28;1705357;83;21467;-46
2022/09/14 12:05:13;;;;;;;9.10;5.55;;;;;;;16.94;67.53;99547.59;1706309;83;21112;-48
2022/09/14 12:07:49;;;;;;;8.95;5.80;;;;;;;17.04;67.82;99535.66;1699026;82;21137;-47